Medina Lake, Texas
Current Conditions -  °F | °C
As of 9:35 PM on Saturday 22 Nov 2014 (Local Time) from K5C1 Reporting Station
Clear Clear  
Wind Chill: 55°   Ceiling: Unl
Heat Index: 55°   Visibility: 10mi
Dew Point: 52°   Wind: 3mph
Humidity: 88%   Direction: 260°W
Pressure: 29.76"   Gusts: NA
Location:  29.6773°N, 98.9°W
Report Text: K5C1 230335Z AUTO 26003KT 10SM CLR 13/11 A2976 RMK AO1
Loading
Personal Weather Stations






























Interactive Weather Map New forecast layout! Learn more

10-Day Weather Forecast

Advertisements
Track Severe Weather on mobile